Time;durP1;ratioP1;P1;durP2;ratioP2;P2;SDS_P1;SDS_P2;PMS_P1;PMS_P2;Temp;Humidity;BMP_temperature;BMP_pressure;BME280_temperature;BME280_humidity;BME280_pressure;Samples;Min_cycle;Max_cycle;Signal;HPM_P1;HPM_P2
2023/02/20 00:00:01;;;;;;;0.30;0.30;;;;;;;10.47;100.00;101111.34;5037457;28;20458;-65
2023/02/20 00:02:26;;;;;;;0.20;0.20;;;;;;;10.44;100.00;101114.81;5036542;28;20026;-65
2023/02/20 00:04:52;;;;;;;0.20;0.20;;;;;;;10.42;100.00;101119.91;5036691;28;20037;-66
2023/02/20 00:07:17;;;;;;;0.20;0.20;;;;;;;10.43;100.00;101115.16;5037448;28;20025;-67
2023/02/20 00:09:43;;;;;;;0.20;0.20;;;;;;;10.47;100.00;101114.13;5037721;28;20040;-67
2023/02/20 00:12:08;;;;;;;0.20;0.20;;;;;;;10.47;100.00;101116.91;5037831;28;20029;-67
2023/02/20 00:14:36;;;;;;;0.20;0.20;;;;;;;10.50;100.00;101118.22;5037400;28;20120;-65
2023/02/20 00:17:01;;;;;;;0.20;0.20;;;;;;;10.46;100.00;101108.91;5037797;28;20025;-67
2023/02/20 00:19:27;;;;;;;0.20;0.20;;;;;;;10.44;100.00;101103.69;5037288;28;20460;-64
2023/02/20 00:21:53;;;;;;;0.20;0.20;;;;;;;10.45;100.00;101108.09;5035504;28;20380;-66
2023/02/20 00:24:19;;;;;;;0.20;0.20;;;;;;;10.43;100.00;101107.63;5036289;28;20049;-66
2023/02/20 00:26:49;;;;;;;0.30;0.30;;;;;;;10.43;100.00;101107.63;5035478;28;20431;-65
2023/02/20 00:29:17;;;;;;;0.20;0.20;;;;;;;10.43;100.00;101112.38;5035978;28;20053;-65
2023/02/20 00:31:42;;;;;;;0.25;0.25;;;;;;;10.48;100.00;101089.91;5036499;28;20025;-64
2023/02/20 00:34:08;;;;;;;0.20;0.20;;;;;;;10.51;100.00;101085.63;5035771;28;20026;-65
2023/02/20 00:36:33;;;;;;;0.20;0.20;;;;;;;10.43;100.00;101092.88;5035196;28;20384;-66
2023/02/20 00:39:01;;;;;;;0.20;0.20;;;;;;;10.43;100.00;101082.56;5034841;28;20036;-65
2023/02/20 00:41:26;;;;;;;0.28;0.28;;;;;;;10.42;100.00;101092.06;5035341;28;20460;-66
2023/02/20 00:43:52;;;;;;;0.30;0.30;;;;;;;10.39;100.00;101100.31;5035505;28;20025;-66
2023/02/20 00:46:17;;;;;;;0.20;0.20;;;;;;;10.37;100.00;101106.19;5034984;28;20473;-65
2023/02/20 00:48:43;;;;;;;0.20;0.20;;;;;;;10.37;100.00;101102.59;5035499;28;20038;-66
2023/02/20 00:51:08;;;;;;;0.30;0.30;;;;;;;10.42;100.00;101099.63;5035171;28;20033;-65
2023/02/20 00:53:34;;;;;;;0.20;0.20;;;;;;;10.40;100.00;101101.94;5034114;28;20472;-64
2023/02/20 00:55:59;;;;;;;0.20;0.20;;;;;;;10.32;100.00;101100.81;5034553;28;20041;-65
2023/02/20 00:58:25;;;;;;;0.20;0.20;;;;;;;10.30;100.00;101094.81;5034884;28;20499;-64
2023/02/20 01:00:50;;;;;;;0.20;0.20;;;;;;;10.32;100.00;101109.16;5035347;28;20032;-65
2023/02/20 01:03:16;;;;;;;0.30;0.30;;;;;;;10.26;100.00;101102.19;5034792;28;20423;-64
2023/02/20 01:05:41;;;;;;;0.20;0.20;;;;;;;10.21;100.00;101119.03;5034856;28;20037;-65
2023/02/20 01:08:07;;;;;;;0.20;0.20;;;;;;;10.25;100.00;101114.47;5034554;28;20026;-65
2023/02/20 01:10:32;;;;;;;0.20;0.20;;;;;;;10.27;100.00;101109.38;5034800;28;20033;-64
2023/02/20 01:12:58;;;;;;;0.20;0.20;;;;;;;10.23;100.00;101122.31;5034798;28;20083;-65
2023/02/20 01:15:23;;;;;;;0.20;0.20;;;;;;;10.21;100.00;101128.19;5034757;28;20033;-65
2023/02/20 01:17:48;;;;;;;0.20;0.20;;;;;;;10.20;100.00;101129.34;5034271;28;20101;-65
2023/02/20 01:20:16;;;;;;;0.20;0.20;;;;;;;10.16;100.00;101124.81;5035014;28;20029;-65
2023/02/20 01:22:42;;;;;;;0.30;0.30;;;;;;;10.10;100.00;101128.94;5034280;28;20021;-65
2023/02/20 01:25:07;;;;;;;0.20;0.20;;;;;;;10.10;100.00;101128.94;5034237;28;20121;-65
2023/02/20 01:27:33;;;;;;;0.30;0.30;;;;;;;10.18;100.00;101128.06;5034092;28;20046;-65
2023/02/20 01:29:58;;;;;;;0.20;0.20;;;;;;;10.13;100.00;101131.06;5034166;28;20029;-65
2023/02/20 01:32:24;;;;;;;0.30;0.30;;;;;;;10.03;100.00;101121.13;5034120;28;20036;-65
2023/02/20 01:34:49;;;;;;;0.20;0.20;;;;;;;10.08;100.00;101118.16;5034439;28;20052;-65
2023/02/20 01:37:15;;;;;;;0.30;0.30;;;;;;;10.11;100.00;101122.22;5034315;28;20040;-66
2023/02/20 01:39:40;;;;;;;0.20;0.20;;;;;;;10.11;100.00;101120.25;5033971;28;20095;-66
2023/02/20 01:42:08;;;;;;;0.25;0.25;;;;;;;10.10;100.00;101113.06;5034081;28;20120;-64
2023/02/20 01:44:36;;;;;;;0.20;0.20;;;;;;;10.17;100.00;101109.72;5033866;28;20035;-66
2023/02/20 01:47:11;;;;;;;0.20;0.20;;;;;;;10.15;100.00;101098.16;5033817;28;20499;-66
2023/02/20 01:49:44;;;;;;;0.20;0.20;;;;;;;10.19;100.00;101093.53;5035582;28;20417;-66
2023/02/20 01:52:17;;;;;;;0.30;0.30;;;;;;;10.13;100.00;101089.34;5034565;28;20461;-66
2023/02/20 01:54:48;;;;;;;0.25;0.25;;;;;;;10.11;100.00;101091.63;5033945;28;20040;-66
2023/02/20 01:57:18;;;;;;;0.20;0.20;;;;;;;10.09;100.00;101093.94;5037469;28;20418;-66
2023/02/20 01:59:46;;;;;;;0.20;0.20;;;;;;;10.06;100.00;101080.69;5036832;28;20021;-66
2023/02/20 02:02:12;;;;;;;0.30;0.30;;;;;;;10.08;100.00;101087.56;5036755;28;20036;-66
2023/02/20 02:04:40;;;;;;;0.30;0.30;;;;;;;10.10;100.00;101085.25;5036011;28;20033;-65
2023/02/20 02:07:08;;;;;;;0.20;0.20;;;;;;;10.09;100.00;101100.31;5054916;28;20104;-66
2023/02/20 02:09:37;;;;;;;0.25;0.25;;;;;;;10.13;100.00;101100.47;5037002;28;20111;-66
2023/02/20 02:12:03;;;;;;;0.20;0.20;;;;;;;10.14;100.00;101099.31;5036691;28;20476;-66
2023/02/20 02:14:29;;;;;;;0.22;0.22;;;;;;;10.13;100.00;101094.91;5036586;28;20025;-66
2023/02/20 02:17:13;;;;;;;0.20;0.20;;;;;;;10.11;100.00;101098.00;5036549;28;20033;-66
2023/02/20 02:20:03;;;;;;;0.20;0.20;;;;;;;10.11;100.00;101094.41;5054127;28;20021;-66
2023/02/20 02:22:54;;;;;;;0.20;0.20;;;;;;;10.11;100.00;101097.19;5054240;28;20025;-64
2023/02/20 02:25:31;;;;;;;0.22;0.22;;;;;;;10.13;100.00;101100.47;5036936;28;20479;-66
2023/02/20 02:28:40;;;;;;;0.20;0.20;;;;;;;10.10;100.00;101095.56;5036386;28;20053;-66
2023/02/20 02:31:23;;;;;;;0.20;0.20;;;;;;;10.09;100.00;101080.03;5036285;28;20116;-66
2023/02/20 02:34:21;;;;;;;0.20;0.20;;;;;;;10.10;100.00;101084.44;5036842;28;20033;-66
2023/02/20 02:37:02;;;;;;;0.30;0.30;;;;;;;10.08;100.00;101087.56;5036173;28;20028;-66
2023/02/20 02:39:34;;;;;;;0.20;0.20;;;;;;;10.11;100.00;101092.44;5036117;28;20032;-66
2023/02/20 02:42:24;;;;;;;0.30;0.30;;;;;;;10.11;100.00;101086.06;5036049;28;20021;-66
2023/02/20 02:44:59;;;;;;;0.20;0.20;;;;;;;10.13;100.00;101089.34;5053932;28;20025;-66
2023/02/20 02:47:47;;;;;;;0.30;0.30;;;;;;;10.11;100.00;101083.28;5036088;28;20029;-66
2023/02/20 02:50:21;;;;;;;0.30;0.30;;;;;;;10.11;100.00;101086.88;5036805;28;20090;-66
2023/02/20 02:52:49;;;;;;;0.20;0.20;;;;;;;10.13;100.00;101097.69;5035949;28;20028;-66
2023/02/20 02:55:24;;;;;;;0.20;0.20;;;;;;;10.08;100.00;101100.66;5036111;28;20457;-66
2023/02/20 02:57:49;;;;;;;0.25;0.25;;;;;;;10.15;100.00;101092.59;5054326;28;20452;-63
2023/02/20 03:00:20;;;;;;;0.30;0.30;;;;;;;10.17;100.00;101102.25;5035870;28;20162;-64
2023/02/20 03:02:52;;;;;;;0.30;0.30;;;;;;;10.07;100.00;101102.63;5035855;28;20028;-66
2023/02/20 03:05:21;;;;;;;0.20;0.20;;;;;;;10.08;100.00;101100.66;5036659;28;20032;-65
2023/02/20 03:07:52;;;;;;;0.30;0.30;;;;;;;10.09;100.00;101094.75;5036408;28;20025;-64
2023/02/20 03:10:30;;;;;;;0.20;0.20;;;;;;;10.06;100.00;101089.03;5035790;28;20033;-66
2023/02/20 03:13:02;;;;;;;0.20;0.20;;;;;;;9.94;100.00;101085.03;5036296;28;20017;-66
2023/02/20 03:15:36;;;;;;;0.20;0.20;;;;;;;9.93;100.00;101090.94;5035345;28;20059;-63
2023/02/20 03:18:12;;;;;;;0.20;0.20;;;;;;;9.90;100.00;101086.84;5053345;28;20475;-65
2023/02/20 03:21:02;;;;;;;0.20;0.20;;;;;;;9.86;100.00;101091.47;5036269;28;20028;-66
2023/02/20 03:23:33;;;;;;;0.20;0.20;;;;;;;9.79;100.00;101101.47;5053193;28;20391;-65
2023/02/20 03:26:06;;;;;;;0.20;0.20;;;;;;;9.69;100.00;101091.53;5035661;28;20061;-65
2023/02/20 03:28:34;;;;;;;;;;;;;;;9.64;100.00;101089.78;5036022;28;20116;-65
2023/02/20 03:31:09;;;;;;;0.30;0.30;;;;;;;9.68;100.00;101092.69;5035582;28;20431;-65
2023/02/20 03:45:25;;;;;;;0.30;0.30;;;;;;;9.63;100.00;101082.59;5053890;28;20106;-65
2023/02/20 03:47:56;;;;;;;0.20;0.20;;;;;;;9.65;100.00;101090.59;5035439;28;20025;-66
2023/02/20 03:53:06;;;;;;;0.20;0.20;;;;;;;9.64;100.00;101097.28;5053811;28;20494;-65
2023/02/20 03:55:32;;;;;;;0.30;0.30;;;;;;;9.55;100.00;101089.00;5035184;28;20049;-65
2023/02/20 03:58:04;;;;;;;0.30;0.30;;;;;;;9.48;100.00;101094.28;5035359;28;20032;-65
2023/02/20 04:00:34;;;;;;;0.30;0.30;;;;;;;9.43;100.00;101100.84;5035883;28;20452;-65
2023/02/20 04:03:07;;;;;;;0.20;0.20;;;;;;;9.40;100.00;101100.69;5035181;28;20017;-65
2023/02/20 04:05:39;;;;;;;0.30;0.30;;;;;;;9.42;100.00;101103.91;5035647;28;20384;-65
2023/02/20 04:08:10;;;;;;;0.20;0.20;;;;;;;9.28;100.00;101101.38;5035237;28;20544;-65
2023/02/20 04:10:49;;;;;;;0.20;0.20;;;;;;;9.37;100.00;101102.13;5035192;28;20071;-65
2023/02/20 04:13:19;;;;;;;0.30;0.30;;;;;;;9.17;100.00;101081.47;5035213;28;20032;-65
2023/02/20 04:15:45;;;;;;;0.28;0.28;;;;;;;9.34;100.00;101110.34;5035458;28;20095;-65
2023/02/20 04:18:17;;;;;;;0.20;0.20;;;;;;;9.27;100.00;101113.63;5052691;28;20022;-65
2023/02/20 04:20:43;;;;;;;0.30;0.30;;;;;;;9.20;100.00;101113.31;5053266;28;20086;-65
2023/02/20 04:23:14;;;;;;;0.30;0.30;;;;;;;9.09;100.00;101120.38;5035597;28;20044;-65
2023/02/20 04:25:48;;;;;;;0.30;0.30;;;;;;;9.09;100.00;101129.50;5035046;28;20037;-65
2023/02/20 04:28:15;;;;;;;0.30;0.30;;;;;;;9.02;100.00;101134.75;5036253;28;20028;-65
2023/02/20 04:30:40;;;;;;;0.30;0.30;;;;;;;9.06;100.00;101132.97;5038786;28;20033;-65
2023/02/20 04:33:13;;;;;;;0.20;0.20;;;;;;;9.08;100.00;101143.72;5039033;28;20032;-65
2023/02/20 04:35:40;;;;;;;0.30;0.30;;;;;;;8.98;100.00;101150.44;5056808;28;20024;-65
2023/02/20 04:38:07;;;;;;;0.20;0.20;;;;;;;8.98;100.00;101146.84;5038341;28;20033;-65
2023/02/20 04:40:36;;;;;;;0.20;0.20;;;;;;;8.84;100.00;101149.78;5038882;28;20128;-65
2023/02/20 04:43:02;;;;;;;0.30;0.30;;;;;;;8.90;100.00;101149.31;5038233;28;20017;-65
2023/02/20 04:45:28;;;;;;;0.30;0.30;;;;;;;8.85;100.00;101157.00;5038590;28;20039;-65
2023/02/20 04:47:53;;;;;;;0.30;0.30;;;;;;;8.87;100.00;101152.72;5038308;28;20082;-65
2023/02/20 04:50:23;;;;;;;0.30;0.30;;;;;;;8.80;100.00;101149.66;5038265;28;20115;-65
2023/02/20 04:52:49;;;;;;;0.20;0.20;;;;;;;8.87;100.00;101155.50;5038453;28;20033;-65
2023/02/20 04:55:19;;;;;;;0.20;0.20;;;;;;;8.87;100.00;101151.91;5037905;28;20491;-65
2023/02/20 04:57:45;;;;;;;0.30;0.30;;;;;;;8.81;100.00;101159.59;5038075;28;20033;-65
2023/02/20 05:00:13;;;;;;;0.20;0.20;;;;;;;8.89;100.00;101150.47;5038007;28;20033;-65
2023/02/20 05:02:39;;;;;;;0.30;0.30;;;;;;;8.83;100.00;101168.41;5038562;28;20106;-65
2023/02/20 05:05:06;;;;;;;0.30;0.30;;;;;;;8.87;100.00;101165.78;5038427;28;20037;-65
2023/02/20 05:07:34;;;;;;;0.30;0.30;;;;;;;8.85;100.00;101163.34;5039095;28;20024;-65
2023/02/20 05:10:00;;;;;;;0.30;0.30;;;;;;;8.89;100.00;101169.03;5038497;28;20032;-65
2023/02/20 05:12:25;;;;;;;0.30;0.30;;;;;;;8.88;100.00;101168.22;5037845;28;20033;-65
2023/02/20 05:14:51;;;;;;;0.20;0.20;;;;;;;8.88;100.00;101175.75;5038404;28;20083;-65
2023/02/20 05:17:16;;;;;;;0.30;0.30;;;;;;;8.95;100.00;101164.97;5037757;28;20497;-65
2023/02/20 05:19:44;;;;;;;0.30;0.30;;;;;;;8.84;100.00;101171.97;5037984;28;20094;-65
2023/02/20 05:22:18;;;;;;;0.30;0.30;;;;;;;8.82;100.00;101190.94;5037233;28;20060;-65
2023/02/20 05:24:49;;;;;;;0.20;0.20;;;;;;;8.76;100.00;101181.13;5037592;28;20040;-65
2023/02/20 05:27:17;;;;;;;0.20;0.20;;;;;;;8.75;100.00;101185.88;5037780;28;20036;-65
2023/02/20 05:29:50;;;;;;;0.20;0.20;;;;;;;8.82;100.00;101191.75;5055624;28;20025;-65
2023/02/20 05:32:16;;;;;;;0.30;0.30;;;;;;;8.73;100.00;101187.34;5038029;28;20057;-65
2023/02/20 05:34:48;;;;;;;0.30;0.30;;;;;;;8.79;100.00;101186.88;5037701;28;20029;-66
2023/02/20 05:37:17;;;;;;;0.30;0.30;;;;;;;8.73;100.00;101193.69;5037343;28;20025;-65
2023/02/20 05:39:46;;;;;;;0.30;0.30;;;;;;;8.68;100.00;101191.06;5037295;28;20036;-65
2023/02/20 05:42:12;;;;;;;0.30;0.30;;;;;;;8.66;100.00;101190.59;5037700;28;20040;-65
2023/02/20 05:44:41;;;;;;;0.30;0.30;;;;;;;8.65;100.00;101188.97;5037733;28;20120;-65
2023/02/20 05:47:06;;;;;;;0.30;0.30;;;;;;;8.64;100.00;101195.66;5037421;28;20060;-65
2023/02/20 05:49:34;;;;;;;0.20;0.20;;;;;;;8.64;100.00;101201.22;5037360;28;20056;-65
2023/02/20 05:52:00;;;;;;;0.20;0.20;;;;;;;8.56;100.00;101204.78;5055211;28;20021;-65
2023/02/20 05:54:25;;;;;;;0.30;0.30;;;;;;;8.21;100.00;101160.34;5037007;28;20036;-65
2023/02/20 05:56:51;;;;;;;0.30;0.30;;;;;;;8.40;100.00;101199.69;5033246;28;20046;-65
2023/02/20 05:59:19;;;;;;;0.30;0.30;;;;;;;8.43;100.00;101201.03;5033683;28;20041;-65
2023/02/20 06:01:50;;;;;;;0.30;0.30;;;;;;;8.48;100.00;101202.84;5035585;28;20033;-65
2023/02/20 06:04:15;;;;;;;0.30;0.30;;;;;;;8.70;100.00;101208.22;5033554;28;20026;-65
2023/02/20 06:06:43;;;;;;;0.30;0.30;;;;;;;9.03;100.00;101213.28;5034129;28;20032;-65
2023/02/20 06:09:11;;;;;;;0.20;0.20;;;;;;;9.33;100.00;101217.84;5033532;28;20029;-65
2023/02/20 06:11:39;;;;;;;0.30;0.30;;;;;;;9.53;100.00;101209.94;5033543;28;20029;-65
2023/02/20 06:14:09;;;;;;;0.20;0.20;;;;;;;9.80;100.00;101220.66;5033370;28;20091;-65
2023/02/20 06:16:34;;;;;;;0.20;0.20;;;;;;;10.05;100.00;101210.56;5035100;28;20040;-65
2023/02/20 06:19:00;;;;;;;0.20;0.20;;;;;;;10.32;100.00;101220.44;5033805;28;20029;-65
2023/02/20 06:21:26;;;;;;;0.20;0.20;;;;;;;10.63;100.00;101230.41;5033240;28;20103;-65
2023/02/20 06:23:53;;;;;;;0.30;0.30;;;;;;;11.05;100.00;101236.00;5033687;28;20037;-65
2023/02/20 06:26:22;;;;;;;0.20;0.20;;;;;;;11.41;96.97;101238.94;5033137;28;20037;-65
2023/02/20 06:28:52;;;;;;;0.20;0.20;;;;;;;11.83;95.53;101243.63;5033081;28;20033;-65
2023/02/20 06:31:26;;;;;;;0.20;0.20;;;;;;;12.37;92.23;101254.59;5033065;28;20034;-66
2023/02/20 06:33:53;;;;;;;0.20;0.20;;;;;;;12.75;87.95;101257.00;5033316;28;20026;-65
2023/02/20 06:36:24;;;;;;;0.20;0.20;;;;;;;13.16;86.90;101255.84;5032732;28;20025;-65
2023/02/20 06:38:51;;;;;;;0.20;0.20;;;;;;;13.64;83.41;101256.84;5033435;28;20125;-65
2023/02/20 06:41:19;;;;;;;0.20;0.20;;;;;;;14.10;81.46;101263.66;5032899;28;20042;-66
2023/02/20 06:43:44;;;;;;;0.30;0.30;;;;;;;14.44;76.38;101258.50;5033031;28;20473;-66
2023/02/20 06:46:12;;;;;;;0.20;0.20;;;;;;;14.88;75.29;101272.34;5032789;28;20033;-65
2023/02/20 06:48:48;;;;;;;0.20;0.20;;;;;;;15.25;73.42;101269.16;5033000;28;20361;-66
2023/02/20 06:51:18;;;;;;;0.20;0.20;;;;;;;15.57;70.43;101265.00;5031854;28;20040;-66
2023/02/20 06:53:43;;;;;;;0.20;0.20;;;;;;;16.02;69.74;101274.69;5032703;28;20025;-66
2023/02/20 06:56:10;;;;;;;0.20;0.20;;;;;;;16.34;67.43;101277.25;5032726;28;20140;-66
2023/02/20 06:58:36;;;;;;;0.20;0.20;;;;;;;16.63;65.43;101270.91;5032179;28;20620;-66
2023/02/20 07:01:02;;;;;;;0.20;0.20;;;;;;;16.99;64.27;101275.09;5032661;28;20043;-66
2023/02/20 07:03:37;;;;;;;0.20;0.20;;;;;;;17.38;62.38;101276.78;5032863;28;20035;-66
2023/02/20 07:06:02;;;;;;;0.20;0.20;;;;;;;17.40;59.10;101278.03;5032479;28;20491;-67
2023/02/20 07:08:30;;;;;;;0.20;0.20;;;;;;;17.82;60.48;101273.31;5032379;28;20029;-66
2023/02/20 07:10:55;;;;;;;0.20;0.20;;;;;;;18.04;58.54;101281.56;5032950;28;20537;-66
2023/02/20 07:13:24;;;;;;;0.20;0.20;;;;;;;18.26;56.93;101293.03;5032324;28;20025;-66
2023/02/20 07:15:49;;;;;;;0.20;0.20;;;;;;;18.51;56.75;101288.44;5033822;28;20491;-66
2023/02/20 07:18:16;;;;;;;0.20;0.20;;;;;;;18.37;55.30;101293.13;5032391;28;20045;-66
2023/02/20 07:20:42;;;;;;;0.20;0.20;;;;;;;18.23;56.07;101293.84;5032633;28;20025;-66
2023/02/20 07:23:08;;;;;;;0.20;0.20;;;;;;;17.79;56.63;101306.69;5032291;28;20460;-66
2023/02/20 07:25:33;;;;;;;0.20;0.20;;;;;;;17.74;58.91;101309.84;5032852;28;20034;-66
2023/02/20 07:27:58;;;;;;;0.20;0.20;;;;;;;17.59;56.83;101310.03;5032351;28;20033;-67
2023/02/20 07:30:24;;;;;;;0.20;0.20;;;;;;;17.44;59.72;101309.03;5031949;28;20026;-67
2023/02/20 07:32:50;;;;;;;0.20;0.20;;;;;;;17.46;61.01;101310.25;5032284;28;20068;-64
2023/02/20 07:35:16;;;;;;;0.20;0.20;;;;;;;17.65;60.22;101309.28;5032226;28;20384;-66
2023/02/20 07:37:41;;;;;;;0.20;0.20;;;;;;;17.64;57.47;101313.31;5031941;28;20034;-67
2023/02/20 07:40:10;;;;;;;0.20;0.20;;;;;;;18.19;58.14;101316.31;5032548;28;20045;-67
2023/02/20 07:42:37;;;;;;;0.20;0.20;;;;;;;18.58;56.82;101311.03;5032929;28;20024;-67
2023/02/20 07:45:06;;;;;;;0.20;0.20;;;;;;;18.52;56.87;101309.78;5032047;28;20103;-66
2023/02/20 07:47:32;;;;;;;0.20;0.20;;;;;;;18.83;53.28;101311.25;5032155;28;20025;-66
2023/02/20 07:49:57;;;;;;;0.20;0.20;;;;;;;19.23;55.31;101305.84;5031789;28;20078;-66
2023/02/20 07:52:25;;;;;;;0.20;0.20;;;;;;;19.34;53.41;101296.25;5032140;28;20037;-66
2023/02/20 07:54:50;;;;;;;0.20;0.20;;;;;;;19.33;53.31;101280.53;5033058;28;20057;-66
2023/02/20 07:57:16;;;;;;;0.20;0.20;;;;;;;19.91;52.54;101300.50;5035811;28;20060;-66
2023/02/20 07:59:41;;;;;;;0.20;0.20;;;;;;;20.07;50.68;101300.94;5035709;28;20090;-66
2023/02/20 08:02:06;;;;;;;0.20;0.20;;;;;;;19.91;51.15;101306.13;5036192;28;20029;-66
2023/02/20 08:04:32;;;;;;;0.20;0.20;;;;;;;19.83;51.36;101300.47;5039059;28;20033;-66
2023/02/20 08:06:58;;;;;;;0.20;0.20;;;;;;;19.26;54.04;101311.50;5038610;28;20029;-66
2023/02/20 08:09:23;;;;;;;0.20;0.20;;;;;;;19.16;55.31;101306.63;5039236;28;20035;-66
2023/02/20 08:11:48;;;;;;;0.20;0.20;;;;;;;19.38;55.35;101291.41;5038993;28;20033;-66
2023/02/20 08:14:15;;;;;;;0.20;0.20;;;;;;;19.35;53.08;101274.47;5038708;28;20029;-66
2023/02/20 08:16:40;;;;;;;0.20;0.20;;;;;;;19.30;54.08;101301.06;5038915;28;20021;-66
2023/02/20 08:19:06;;;;;;;0.20;0.20;;;;;;;19.64;52.58;101298.00;5038473;28;20098;-66
2023/02/20 08:21:31;;;;;;;0.20;0.20;;;;;;;19.23;56.16;101298.22;5038788;28;20025;-66
2023/02/20 08:23:57;;;;;;;0.20;0.20;;;;;;;18.65;57.34;101293.38;5038509;28;20033;-66
2023/02/20 08:26:22;;;;;;;0.20;0.20;;;;;;;19.34;55.06;101296.25;5038520;28;20032;-66
2023/02/20 08:28:49;;;;;;;0.20;0.20;;;;;;;19.69;53.84;101294.78;5038173;28;20028;-66
2023/02/20 08:31:15;;;;;;;0.20;0.20;;;;;;;19.57;54.46;101297.94;5037973;28;20028;-67
2023/02/20 08:33:42;;;;;;;0.20;0.20;;;;;;;19.04;54.84;101301.31;5038530;28;20029;-66
2023/02/20 08:36:26;;;;;;;0.20;0.20;;;;;;;18.66;56.61;101289.34;5038081;28;20032;-66
2023/02/20 08:38:53;;;;;;;0.20;0.20;;;;;;;19.46;54.78;101289.44;5038348;28;20025;-66
2023/02/20 08:41:19;;;;;;;0.20;0.20;;;;;;;19.86;53.08;101281.91;5037922;28;20108;-66
2023/02/20 08:43:45;;;;;;;0.20;0.20;;;;;;;20.48;51.62;101289.28;5037985;28;20124;-66
2023/02/20 08:46:13;;;;;;;0.20;0.20;;;;;;;20.76;48.60;101288.44;5038224;28;20029;-66
2023/02/20 08:48:40;;;;;;;0.20;0.20;;;;;;;20.87;50.30;101292.06;5038036;28;20032;-66
2023/02/20 08:51:06;;;;;;;0.20;0.20;;;;;;;20.01;49.48;101285.59;5037989;28;20044;-66
2023/02/20 08:53:32;;;;;;;0.20;0.20;;;;;;;19.55;51.22;101283.44;5038648;28;20029;-66
2023/02/20 08:55:58;;;;;;;0.20;0.20;;;;;;;19.35;51.69;101292.22;5037469;28;20053;-66
2023/02/20 08:58:24;;;;;;;0.20;0.20;;;;;;;19.92;51.15;101268.22;5038371;28;20036;-66
2023/02/20 09:00:50;;;;;;;0.13;0.13;;;;;;;20.59;49.16;101290.09;5037974;28;20387;-66
2023/02/20 09:03:16;;;;;;;0.20;0.20;;;;;;;20.78;49.47;101292.50;5037675;28;20376;-66
2023/02/20 09:05:44;;;;;;;0.20;0.20;;;;;;;20.49;50.42;101293.72;5037942;28;20033;-66
2023/02/20 09:08:12;;;;;;;0.20;0.20;;;;;;;19.93;51.00;101289.63;5037530;28;20025;-66
2023/02/20 09:10:40;;;;;;;0.20;0.20;;;;;;;20.01;52.52;101291.22;5037871;28;20048;-66
2023/02/20 09:13:05;;;;;;;0.20;0.20;;;;;;;20.80;49.07;101290.06;5037366;28;20036;-66
2023/02/20 09:15:37;;;;;;;0.13;0.13;;;;;;;21.34;47.22;101290.75;5037182;28;20036;-66
2023/02/20 09:18:04;;;;;;;0.20;0.20;;;;;;;20.88;47.37;101291.69;5038317;28;20352;-66
2023/02/20 09:20:29;;;;;;;0.20;0.20;;;;;;;20.76;48.74;101280.78;5037613;28;20037;-66
2023/02/20 09:22:58;;;;;;;0.15;0.15;;;;;;;20.74;48.03;101294.53;5037699;28;20059;-66
2023/02/20 09:25:23;;;;;;;0.20;0.20;;;;;;;20.44;48.75;101282.78;5036913;28;20029;-66
2023/02/20 09:27:51;;;;;;;0.20;0.20;;;;;;;19.52;51.46;101278.56;5037286;28;20058;-66
2023/02/20 09:30:19;;;;;;;0.20;0.20;;;;;;;19.95;49.97;101278.72;5036772;28;20033;-66
2023/02/20 09:32:46;;;;;;;0.20;0.20;;;;;;;20.40;48.44;101286.44;5054763;28;20115;-66
2023/02/20 09:35:21;;;;;;;0.20;0.20;;;;;;;20.47;48.77;101284.84;5037481;28;20083;-66
2023/02/20 09:37:49;;;;;;;0.15;0.15;;;;;;;20.60;46.91;101286.84;5037124;28;20506;-66
2023/02/20 09:40:15;;;;;;;0.20;0.20;;;;;;;20.53;48.74;101281.22;5037771;28;20033;-67
2023/02/20 09:43:18;;;;;;;0.20;0.20;;;;;;;20.50;48.88;101286.84;5036881;28;20111;-66
2023/02/20 09:45:56;;;;;;;0.20;0.20;;;;;;;20.39;46.87;101284.81;5036959;28;20033;-66
2023/02/20 09:48:44;;;;;;;0.20;0.20;;;;;;;21.04;45.37;101281.91;5038419;28;20029;-66
2023/02/20 09:51:21;;;;;;;0.20;0.20;;;;;;;21.28;44.80;101283.88;5038781;28;20032;-66
2023/02/20 09:54:01;;;;;;;0.20;0.20;;;;;;;21.17;45.40;101280.28;5037974;28;20048;-66
2023/02/20 09:56:31;;;;;;;0.20;0.20;;;;;;;20.25;46.93;101275.53;5055759;28;20049;-66
2023/02/20 09:59:17;;;;;;;0.20;0.20;;;;;;;20.72;46.15;101298.97;5037842;28;20040;-66
2023/02/20 10:02:01;;;;;;;0.20;0.20;;;;;;;20.66;46.58;101299.38;5036798;28;20037;-66
2023/02/20 10:04:41;;;;;;;0.20;0.20;;;;;;;20.35;47.72;101286.84;5036228;28;20021;-67
2023/02/20 10:07:29;;;;;;;0.20;0.20;;;;;;;21.01;45.18;101297.72;5036377;28;20029;-66
2023/02/20 10:09:59;;;;;;;0.20;0.20;;;;;;;20.76;45.88;101296.94;5035881;28;20043;-66
2023/02/20 10:12:35;;;;;;;0.20;0.20;;;;;;;21.56;44.81;101299.97;5036659;28;20041;-66
2023/02/20 10:15:12;;;;;;;0.20;0.20;;;;;;;21.42;43.53;101292.34;5054478;28;20032;-66
2023/02/20 10:17:57;;;;;;;0.10;0.10;;;;;;;21.36;42.88;101288.34;5036484;28;20119;-66
2023/02/20 10:20:39;;;;;;;0.20;0.20;;;;;;;20.60;44.48;101286.03;5036314;28;20056;-66
2023/02/20 10:23:29;;;;;;;0.13;0.13;;;;;;;20.53;46.44;101277.56;5036470;28;20036;-66
2023/02/20 10:25:59;;;;;;;0.20;0.20;;;;;;;20.44;45.39;101277.13;5053663;28;20056;-66
2023/02/20 10:28:25;;;;;;;0.20;0.20;;;;;;;21.12;45.64;101269.38;5036397;28;20120;-66
2023/02/20 10:30:54;;;;;;;0.20;0.20;;;;;;;21.19;45.94;101275.00;5036259;28;20367;-66
2023/02/20 10:33:29;;;;;;;0.13;0.13;;;;;;;20.76;46.28;101272.28;5035977;28;20036;-67
2023/02/20 10:35:59;;;;;;;0.20;0.20;;;;;;;20.42;47.26;101269.88;5035889;28;20017;-66
2023/02/20 10:38:32;;;;;;;0.20;0.20;;;;;;;20.37;47.40;101273.09;5036202;28;20115;-66
2023/02/20 10:41:35;;;;;;;0.20;0.20;;;;;;;20.51;47.45;101263.06;5053943;28;20442;-66
2023/02/20 10:44:12;;;;;;;0.20;0.20;;;;;;;20.63;47.38;101262.63;5036404;28;20422;-66
2023/02/20 10:46:53;;;;;;;0.20;0.20;;;;;;;21.12;46.75;101267.34;5036417;28;20079;-66
2023/02/20 10:49:25;;;;;;;0.20;0.20;;;;;;;21.07;46.84;101264.16;5053338;28;20021;-66
2023/02/20 10:51:55;;;;;;;0.20;0.20;;;;;;;21.00;47.34;101264.19;5036290;28;20472;-66
2023/02/20 10:54:31;;;;;;;0.20;0.20;;;;;;;20.70;47.66;101256.94;5035681;28;20024;-66
2023/02/20 10:57:07;;;;;;;0.10;0.10;;;;;;;21.42;44.56;101258.38;5035216;28;20053;-66
2023/02/20 10:59:41;;;;;;;0.10;0.10;;;;;;;21.11;45.20;101260.09;5053472;28;20491;-66
2023/02/20 11:02:16;;;;;;;0.20;0.20;;;;;;;20.92;46.67;101252.84;5035969;28;20033;-66
2023/02/20 11:04:49;;;;;;;0.20;0.20;;;;;;;20.58;44.59;101257.38;5035719;28;20075;-66
2023/02/20 11:07:17;;;;;;;0.20;0.20;;;;;;;20.89;44.09;101255.72;5036342;28;20024;-66
2023/02/20 11:09:43;;;;;;;0.20;0.20;;;;;;;21.51;43.21;101255.09;5035701;28;20025;-66
2023/02/20 11:12:32;;;;;;;0.20;0.20;;;;;;;21.62;43.19;101249.38;5035577;28;20491;-66
2023/02/20 11:15:04;;;;;;;0.20;0.20;;;;;;;21.23;43.52;101241.84;5035553;28;20093;-66
2023/02/20 11:17:33;;;;;;;0.20;0.20;;;;;;;20.41;42.85;101234.34;5035407;28;20020;-66
2023/02/20 11:20:00;;;;;;;0.20;0.20;;;;;;;20.65;43.64;101229.88;5035612;28;20021;-66
2023/02/20 11:22:48;;;;;;;0.20;0.20;;;;;;;21.52;41.71;101227.56;5035788;28;20025;-65
2023/02/20 11:25:32;;;;;;;0.10;0.10;;;;;;;21.83;40.40;101205.94;5035670;28;20033;-65
2023/02/20 11:28:20;;;;;;;0.20;0.20;;;;;;;21.27;42.04;101227.69;5035725;28;20021;-65
2023/02/20 11:30:48;;;;;;;0.10;0.10;;;;;;;20.67;43.17;101223.84;5035723;28;20126;-65
2023/02/20 11:33:22;;;;;;;0.20;0.20;;;;;;;21.68;39.62;101220.22;5035424;28;20029;-66
2023/02/20 11:36:10;;;;;;;0.17;0.17;;;;;;;21.42;40.48;101221.59;5035469;28;20025;-65
2023/02/20 11:38:36;;;;;;;0.10;0.10;;;;;;;20.07;43.75;101219.81;5039493;28;20029;-67
2023/02/20 11:41:07;;;;;;;0.20;0.20;;;;;;;19.78;43.92;101202.03;5039307;28;20068;-66
2023/02/20 11:43:46;;;;;;;0.20;0.20;;;;;;;20.27;42.83;101205.28;5039079;28;20028;-66
2023/02/20 11:46:20;;;;;;;0.20;0.20;;;;;;;20.85;41.37;101210.47;5057402;28;20029;-66
2023/02/20 11:49:01;;;;;;;0.20;0.20;;;;;;;20.79;40.65;101208.47;5039435;28;20487;-66
2023/02/20 11:51:44;;;;;;;0.20;0.20;;;;;;;21.15;40.86;101203.50;5056829;28;20072;-67